Time;durP1;ratioP1;P1;durP2;ratioP2;P2;SDS_P1;SDS_P2;PMS_P1;PMS_P2;Temp;Humidity;BMP_temperature;BMP_pressure;BME280_temperature;BME280_humidity;BME280_pressure;Samples;Min_cycle;Max_cycle;Signal;HPM_P1;HPM_P2
2021/06/22 00:01:58;;;;;;;6.50;4.07;;;19.20;99.90;;;;;;5040971;28;20799;-75
2021/06/22 00:04:25;;;;;;;5.43;3.93;;;19.10;99.90;;;;;;5029983;28;20229;-75
2021/06/22 00:06:51;;;;;;;5.93;4.20;;;19.00;99.90;;;;;;5043506;28;20278;-76
2021/06/22 00:09:17;;;;;;;6.73;4.30;;;19.10;99.90;;;;;;5029456;28;20183;-76
2021/06/22 00:11:44;;;;;;;9.10;3.90;;;19.10;99.90;;;;;;5044321;28;20219;-78
2021/06/22 00:14:12;;;;;;;6.80;4.00;;;19.00;99.90;;;;;;5030909;28;20193;-77
2021/06/22 00:16:38;;;;;;;6.47;3.90;;;19.00;99.90;;;;;;5028364;28;20671;-76
2021/06/22 00:19:04;;;;;;;7.47;4.40;;;19.00;99.90;;;;;;5047770;28;20187;-76
2021/06/22 00:21:31;;;;;;;5.43;4.53;;;19.00;99.90;;;;;;5043788;28;21434;-75
2021/06/22 00:23:57;;;;;;;8.87;4.50;;;18.90;99.90;;;;;;5027314;28;20683;-76
2021/06/22 00:26:24;;;;;;;7.57;4.53;;;18.90;99.90;;;;;;5027346;28;20237;-76
2021/06/22 00:28:50;;;;;;;9.30;4.90;;;18.90;99.90;;;;;;5041082;28;20192;-77
2021/06/22 00:31:18;;;;;;;6.83;4.53;;;19.00;99.90;;;;;;5057735;28;20211;-76
2021/06/22 00:33:46;;;;;;;9.03;4.27;;;19.00;99.90;;;;;;5026183;28;20679;-76
2021/06/22 00:36:12;;;;;;;8.37;4.60;;;19.00;99.90;;;;;;5026597;28;20180;-76
2021/06/22 00:38:39;;;;;;;7.63;4.47;;;19.00;99.90;;;;;;5058555;28;20183;-77
2021/06/22 00:41:07;;;;;;;5.67;4.50;;;19.00;99.90;;;;;;5025529;28;20799;-76
2021/06/22 00:43:40;;;;;;;9.27;4.70;;;19.00;99.90;;;;;;5032648;28;20203;-76
2021/06/22 00:46:09;;;;;;;6.63;4.20;;;18.90;99.90;;;;;;5020726;28;20200;-78
2021/06/22 00:48:36;;;;;;;5.30;4.23;;;18.90;99.90;;;;;;5046290;28;20886;-76
2021/06/22 00:51:02;;;;;;;6.37;4.27;;;18.90;99.90;;;;;;5008946;28;20244;-77
2021/06/22 00:53:29;;;;;;;9.03;4.70;;;18.80;99.90;;;;;;5046022;28;20305;-77
2021/06/22 00:55:57;;;;;;;8.13;4.70;;;18.80;99.90;;;;;;5044416;28;20192;-77
2021/06/22 00:58:24;;;;;;;8.63;4.57;;;18.80;99.90;;;;;;5047213;28;20183;-79
2021/06/22 01:00:51;;;;;;;8.80;4.97;;;18.80;99.90;;;;;;5066471;28;20218;-79
2021/06/22 01:03:17;;;;;;;6.13;4.33;;;18.80;99.90;;;;;;5035970;28;20199;-78
2021/06/22 01:05:44;;;;;;;7.93;4.90;;;18.70;99.90;;;;;;5052150;28;20549;-78
2021/06/22 01:08:13;;;;;;;7.53;4.70;;;18.70;99.90;;;;;;5037231;28;20192;-80
2021/06/22 01:10:40;;;;;;;8.67;5.10;;;18.70;99.90;;;;;;5050363;28;20187;-76
2021/06/22 01:13:06;;;;;;;9.57;4.93;;;18.80;99.90;;;;;;5050249;28;20270;-76
2021/06/22 01:15:33;;;;;;;7.30;5.07;;;18.90;99.90;;;;;;5049429;28;20897;-76
2021/06/22 01:18:03;;;;;;;8.53;4.67;;;18.90;99.90;;;;;;5049183;28;20229;-76
2021/06/22 01:20:32;;;;;;;9.03;4.83;;;18.90;99.90;;;;;;5050935;28;20955;-77
2021/06/22 01:23:01;;;;;;;14.20;5.00;;;18.90;99.90;;;;;;5065278;28;20282;-76
2021/06/22 01:25:29;;;;;;;6.47;5.33;;;18.90;99.90;;;;;;5049489;28;20190;-76
2021/06/22 01:27:58;;;;;;;6.70;4.97;;;18.90;99.90;;;;;;5032333;28;20191;-76
2021/06/22 01:30:30;;;;;;;11.03;4.63;;;19.00;99.90;;;;;;5051542;28;20187;-76
2021/06/22 01:32:59;;;;;;;5.93;4.97;;;19.10;99.90;;;;;;5049230;28;20190;-76
2021/06/22 01:35:28;;;;;;;7.27;5.07;;;19.00;99.90;;;;;;5020485;28;20198;-75
2021/06/22 01:38:03;;;;;;;8.03;4.70;;;18.90;99.90;;;;;;5040795;28;20200;-75
2021/06/22 01:40:29;;;;;;;7.53;5.00;;;18.90;99.90;;;;;;5056198;28;20205;-76
2021/06/22 01:43:01;;;;;;;7.87;4.70;;;18.90;99.90;;;;;;5061078;28;20210;-75
2021/06/22 01:45:28;;;;;;;7.67;5.10;;;19.00;99.90;;;;;;5048512;28;20191;-75
2021/06/22 01:47:54;;;;;;;7.30;5.00;;;19.00;99.90;;;;;;5032601;28;20207;-75
2021/06/22 01:50:21;;;;;;;10.30;5.27;;;19.00;99.90;;;;;;5039626;28;20189;-75
2021/06/22 01:52:49;;;;;;;8.90;4.93;;;19.00;99.90;;;;;;5053107;28;21369;-76
2021/06/22 01:55:39;;;;;;;14.40;5.10;;;18.90;99.90;;;;;;5049064;28;20209;-78
2021/06/22 01:58:14;;;;;;;7.77;4.70;;;18.90;99.90;;;;;;5035707;28;20227;-77
2021/06/22 02:00:44;;;;;;;9.73;4.93;;;18.90;99.90;;;;;;5051957;28;20938;-77
2021/06/22 02:03:19;;;;;;;7.63;4.70;;;18.80;99.90;;;;;;5033577;28;20195;-78
2021/06/22 02:05:48;;;;;;;9.03;4.97;;;18.80;99.90;;;;;;5032360;28;20219;-80
2021/06/22 02:08:16;;;;;;;6.93;4.50;;;18.80;99.90;;;;;;5036250;28;20187;-79
2021/06/22 02:10:44;;;;;;;8.03;4.87;;;18.70;99.90;;;;;;5030257;28;20187;-79
2021/06/22 02:13:11;;;;;;;7.23;5.20;;;18.70;99.90;;;;;;5012676;28;20203;-80
2021/06/22 02:15:40;;;;;;;8.10;5.27;;;18.70;99.90;;;;;;5034293;28;20552;-79
2021/06/22 02:18:08;;;;;;;8.20;5.03;;;18.70;99.90;;;;;;5003883;28;20775;-77
2021/06/22 02:20:37;;;;;;;8.57;4.80;;;18.70;99.90;;;;;;5060562;28;20238;-77
2021/06/22 02:23:04;;;;;;;12.40;5.23;;;18.80;99.90;;;;;;5045421;28;20191;-77
2021/06/22 02:25:31;;;;;;;10.30;4.90;;;18.70;99.90;;;;;;5005446;28;20287;-77
2021/06/22 02:28:21;;;;;;;8.00;5.47;;;18.70;99.90;;;;;;5026673;28;20201;-78
2021/06/22 02:30:51;;;;;;;9.47;5.33;;;18.80;99.90;;;;;;5032270;28;20219;-78
2021/06/22 02:33:17;;;;;;;8.03;5.20;;;18.80;99.90;;;;;;5032801;28;20343;-78
2021/06/22 02:35:44;;;;;;;8.17;4.93;;;18.80;99.90;;;;;;5043237;28;20192;-76
2021/06/22 02:38:12;;;;;;;7.17;5.50;;;18.90;99.90;;;;;;5029950;28;20194;-76
2021/06/22 02:40:38;;;;;;;6.63;4.90;;;18.90;99.90;;;;;;5064172;28;20191;-78
2021/06/22 02:43:06;;;;;;;9.43;4.90;;;18.90;99.90;;;;;;5034548;28;20196;-76
2021/06/22 02:45:35;;;;;;;7.17;5.27;;;18.90;99.90;;;;;;5047015;28;20659;-76
2021/06/22 02:48:03;;;;;;;8.00;5.13;;;18.90;99.90;;;;;;5041570;28;20278;-76
2021/06/22 02:50:29;;;;;;;7.70;5.03;;;18.90;99.90;;;;;;5033185;28;20316;-76
2021/06/22 02:52:56;;;;;;;7.17;5.30;;;18.90;99.90;;;;;;5030115;28;20610;-78
2021/06/22 02:55:23;;;;;;;6.80;5.27;;;18.90;99.90;;;;;;5038329;28;20301;-78
2021/06/22 02:57:53;;;;;;;6.40;4.80;;;18.80;99.90;;;;;;5063810;28;20271;-77
2021/06/22 03:00:26;;;;;;;9.97;5.20;;;18.80;99.90;;;;;;5052940;28;20180;-79
2021/06/22 03:02:54;;;;;;;7.10;5.03;;;18.90;99.90;;;;;;5028955;28;20195;-78
2021/06/22 03:05:21;;;;;;;6.53;4.93;;;18.90;99.90;;;;;;5033792;28;20277;-78
2021/06/22 03:07:48;;;;;;;8.00;5.20;;;18.90;99.90;;;;;;5028494;28;20196;-78
2021/06/22 03:10:18;;;;;;;7.03;5.20;;;18.90;99.90;;;;;;5038677;28;20229;-77
2021/06/22 03:12:45;;;;;;;6.67;4.90;;;19.00;99.90;;;;;;5025983;28;20242;-76
2021/06/22 03:15:18;;;;;;;10.43;5.17;;;19.00;99.90;;;;;;5028426;28;20291;-77
2021/06/22 03:17:47;;;;;;;10.07;5.53;;;19.10;99.90;;;;;;5057606;28;20192;-75
2021/06/22 03:20:15;;;;;;;6.50;5.30;;;19.10;99.90;;;;;;5052407;28;20537;-76
2021/06/22 03:22:42;;;;;;;12.37;5.60;;;19.10;99.90;;;;;;5028992;28;20202;-77
2021/06/22 03:25:11;;;;;;;10.60;5.20;;;19.10;99.90;;;;;;5048702;28;20191;-75
2021/06/22 03:27:39;;;;;;;7.30;4.90;;;19.10;99.90;;;;;;5042765;28;20226;-76
2021/06/22 03:30:10;;;;;;;7.70;4.93;;;19.10;99.90;;;;;;5028951;28;20196;-77
2021/06/22 03:32:37;;;;;;;8.27;4.87;;;19.10;99.90;;;;;;5045537;28;20215;-76
2021/06/22 03:35:07;;;;;;;6.23;4.90;;;19.10;99.90;;;;;;5045796;28;20186;-76
2021/06/22 03:37:34;;;;;;;8.70;5.30;;;19.20;99.90;;;;;;5046765;28;20187;-79
2021/06/22 03:40:05;;;;;;;9.37;5.40;;;19.20;99.90;;;;;;5029575;28;20207;-79
2021/06/22 03:42:34;;;;;;;10.43;4.70;;;19.30;99.90;;;;;;5044157;28;20207;-76
2021/06/22 03:45:01;;;;;;;10.23;5.00;;;19.20;99.90;;;;;;5047087;28;20682;-77
2021/06/22 03:47:28;;;;;;;8.50;4.63;;;19.30;99.90;;;;;;5044860;28;20195;-76
2021/06/22 03:49:54;;;;;;;10.50;5.13;;;19.30;99.90;;;;;;5036607;28;20196;-77
2021/06/22 03:52:20;;;;;;;10.00;4.70;;;19.30;99.90;;;;;;5029313;28;20216;-78
2021/06/22 03:54:47;;;;;;;7.10;5.10;;;19.40;99.90;;;;;;5046756;28;20690;-76
2021/06/22 03:57:13;;;;;;;6.07;5.13;;;19.40;99.90;;;;;;5047375;28;20223;-78
2021/06/22 03:59:40;;;;;;;10.80;5.20;;;19.40;99.90;;;;;;5054215;28;20199;-77
2021/06/22 04:02:06;;;;;;;7.70;5.00;;;19.50;99.90;;;;;;5031722;28;20199;-76
2021/06/22 04:04:32;;;;;;;8.33;4.83;;;19.50;99.90;;;;;;5029898;28;20237;-76
2021/06/22 04:06:59;;;;;;;6.53;4.60;;;19.50;99.90;;;;;;5044524;28;20211;-76
2021/06/22 04:09:26;;;;;;;10.47;5.10;;;19.60;99.90;;;;;;5048953;28;20459;-76
2021/06/22 04:11:55;;;;;;;5.73;4.53;;;19.60;99.90;;;;;;5041472;28;20227;-75
2021/06/22 04:14:22;;;;;;;9.50;5.30;;;19.60;99.90;;;;;;5028807;28;20183;-78
2021/06/22 04:16:48;;;;;;;8.50;5.40;;;19.70;99.90;;;;;;5033477;28;20192;-78
2021/06/22 04:19:14;;;;;;;7.87;4.80;;;19.70;99.90;;;;;;5024941;28;20187;-77
2021/06/22 04:21:41;;;;;;;7.17;5.27;;;19.80;99.90;;;;;;5025511;28;20187;-77
2021/06/22 04:24:08;;;;;;;7.90;4.70;;;19.80;99.90;;;;;;5032567;28;20529;-77
2021/06/22 04:26:34;;;;;;;8.40;5.10;;;19.90;99.90;;;;;;5039983;28;20218;-77
2021/06/22 04:29:01;;;;;;;6.97;4.80;;;19.90;99.90;;;;;;5044859;28;20202;-77
2021/06/22 04:31:27;;;;;;;6.93;4.97;;;20.00;99.90;;;;;;5043400;28;20223;-77
2021/06/22 04:33:54;;;;;;;6.50;4.57;;;20.00;99.90;;;;;;5034148;28;20179;-77
2021/06/22 04:36:23;;;;;;;8.07;4.73;;;20.10;99.90;;;;;;5043273;28;20184;-79
2021/06/22 04:38:50;;;;;;;6.20;4.20;;;20.10;99.90;;;;;;5030057;28;20202;-78
2021/06/22 04:41:16;;;;;;;7.30;4.77;;;20.10;99.90;;;;;;5048001;28;20206;-77
2021/06/22 04:43:43;;;;;;;8.77;5.13;;;20.10;99.90;;;;;;5044858;28;20198;-77
2021/06/22 04:46:09;;;;;;;7.37;5.47;;;20.20;99.90;;;;;;5041389;28;20202;-77
2021/06/22 04:48:38;;;;;;;8.73;5.07;;;20.20;99.90;;;;;;5045559;28;20643;-77
2021/06/22 04:51:05;;;;;;;6.73;4.70;;;20.30;99.90;;;;;;5046075;28;20218;-76
2021/06/22 04:53:31;;;;;;;7.27;4.90;;;20.40;99.90;;;;;;5062477;28;20191;-77
2021/06/22 04:55:57;;;;;;;5.97;4.60;;;20.40;99.90;;;;;;5047701;28;20211;-77
2021/06/22 04:58:24;;;;;;;6.80;4.47;;;20.40;99.90;;;;;;5026043;28;20194;-76
2021/06/22 05:00:50;;;;;;;6.53;5.13;;;20.50;99.90;;;;;;5038532;28;20191;-76
2021/06/22 05:03:17;;;;;;;7.43;4.97;;;20.60;99.90;;;;;;5040527;28;20215;-76
2021/06/22 05:05:43;;;;;;;9.13;6.03;;;20.60;99.90;;;;;;5037714;28;20227;-77
2021/06/22 05:08:10;;;;;;;10.70;5.20;;;20.70;99.90;;;;;;5031214;28;20270;-77
2021/06/22 05:10:36;;;;;;;8.07;5.13;;;20.70;99.90;;;;;;5055596;28;20198;-77
2021/06/22 05:13:02;;;;;;;8.17;5.07;;;20.70;99.90;;;;;;5039535;28;20693;-77
2021/06/22 05:15:29;;;;;;;16.77;5.47;;;20.70;99.90;;;;;;5042065;28;20553;-77
2021/06/22 05:17:55;;;;;;;8.80;5.10;;;20.70;99.90;;;;;;5046096;28;20639;-76
2021/06/22 05:20:22;;;;;;;5.70;4.60;;;20.80;99.90;;;;;;5039938;28;20191;-77
2021/06/22 05:22:48;;;;;;;6.20;4.57;;;20.80;99.90;;;;;;5045103;28;20195;-77
2021/06/22 05:25:14;;;;;;;6.43;4.67;;;20.90;99.90;;;;;;5047500;28;20584;-77
2021/06/22 05:27:41;;;;;;;7.37;4.17;;;21.00;99.90;;;;;;5042157;28;20209;-77
2021/06/22 05:30:09;;;;;;;5.50;4.03;;;21.00;99.90;;;;;;5034540;28;20837;-78
2021/06/22 05:32:36;;;;;;;6.37;3.97;;;21.00;99.90;;;;;;5050225;28;20682;-78
2021/06/22 05:35:04;;;;;;;5.70;3.83;;;21.00;99.90;;;;;;5015142;28;21330;-80
2021/06/22 05:37:31;;;;;;;4.77;4.03;;;21.10;99.90;;;;;;5009761;28;20279;-77
2021/06/22 05:39:58;;;;;;;6.57;3.77;;;21.10;99.90;;;;;;5025418;28;20192;-79
2021/06/22 05:42:24;;;;;;;6.93;4.30;;;21.20;99.90;;;;;;5037843;28;20196;-80
2021/06/22 05:44:53;;;;;;;5.50;3.83;;;21.30;99.90;;;;;;5027636;28;21771;-80
2021/06/22 05:47:21;;;;;;;5.10;3.97;;;21.40;99.90;;;;;;5059523;28;20336;-79
2021/06/22 05:49:48;;;;;;;6.17;3.67;;;21.50;99.90;;;;;;5043394;28;20198;-79
2021/06/22 05:52:14;;;;;;;6.57;3.90;;;21.60;99.90;;;;;;5057499;28;20221;-78
2021/06/22 05:54:44;;;;;;;5.67;3.63;;;21.60;99.90;;;;;;5026196;28;20194;-78
2021/06/22 05:57:10;;;;;;;5.40;3.47;;;21.70;99.90;;;;;;5043119;28;20198;-79
2021/06/22 05:59:37;;;;;;;8.17;3.70;;;21.60;99.90;;;;;;5043304;28;20191;-78
2021/06/22 06:02:04;;;;;;;7.13;3.90;;;21.80;99.90;;;;;;5043220;28;20286;-79
2021/06/22 06:04:31;;;;;;;8.50;3.70;;;21.90;99.90;;;;;;5044602;28;20913;-79
2021/06/22 06:06:57;;;;;;;5.83;3.50;;;21.80;99.90;;;;;;5028404;28;20187;-79
2021/06/22 06:09:25;;;;;;;6.73;3.90;;;21.80;99.90;;;;;;5026615;28;20710;-77
2021/06/22 06:11:51;;;;;;;6.57;3.80;;;21.90;99.90;;;;;;5043351;28;20421;-77
2021/06/22 06:14:18;;;;;;;3.67;3.17;;;22.00;99.90;;;;;;5046786;28;20226;-76
2021/06/22 06:16:45;;;;;;;5.13;3.30;;;22.10;99.90;;;;;;5045436;28;21006;-78
2021/06/22 06:19:13;;;;;;;6.33;3.17;;;22.20;99.90;;;;;;5049171;28;20564;-79
2021/06/22 06:21:40;;;;;;;6.43;3.40;;;22.20;99.90;;;;;;5025063;28;20202;-78
2021/06/22 06:24:09;;;;;;;6.53;3.93;;;22.30;99.90;;;;;;5043702;28;20191;-78
2021/06/22 06:29:48;;;;;;;6.27;3.60;;;22.40;99.90;;;;;;5044873;28;21304;-79
2021/06/22 06:32:05;;;;;;;5.80;3.83;;;22.70;99.90;;;;;;5046864;28;20345;-80
2021/06/22 06:34:32;;;;;;;4.20;3.03;;;22.70;99.90;;;;;;5061326;28;20203;-78
2021/06/22 06:36:58;;;;;;;3.97;2.87;;;22.60;99.90;;;;;;5061416;28;20180;-79
2021/06/22 06:39:25;;;;;;;4.67;2.97;;;22.90;99.90;;;;;;5037513;28;20296;-78
2021/06/22 06:41:51;;;;;;;4.33;3.10;;;22.80;99.90;;;;;;5045757;28;20903;-79
2021/06/22 06:44:18;;;;;;;3.97;3.10;;;22.60;99.90;;;;;;5030035;28;20924;-79
2021/06/22 06:46:44;;;;;;;4.33;3.10;;;22.80;99.90;;;;;;5045990;28;20950;-79
2021/06/22 06:49:11;;;;;;;5.47;3.17;;;23.10;99.90;;;;;;5049503;28;20198;-79
2021/06/22 06:51:37;;;;;;;5.70;3.40;;;23.20;99.90;;;;;;5043640;28;20218;-78
2021/06/22 06:54:04;;;;;;;4.07;2.97;;;23.30;99.90;;;;;;5052026;28;20195;-77
2021/06/22 06:56:30;;;;;;;5.40;3.35;;;23.50;99.90;;;;;;5027546;28;20654;-80
2021/06/22 06:58:57;;;;;;;4.07;3.17;;;23.30;99.90;;;;;;5029614;28;20283;-81
2021/06/22 07:01:23;;;;;;;6.85;3.40;;;23.30;99.90;;;;;;5058916;28;20202;-81
2021/06/22 07:03:50;;;;;;;7.60;3.50;;;23.50;99.90;;;;;;5035043;28;20215;-80
2021/06/22 07:06:16;;;;;;;6.53;3.47;;;23.60;99.90;;;;;;5051642;28;20667;-80
2021/06/22 07:08:44;;;;;;;6.43;3.42;;;23.80;99.90;;;;;;5052930;28;20198;-79
2021/06/22 07:11:10;;;;;;;8.13;3.60;;;23.90;99.90;;;;;;5065285;28;20238;-79
2021/06/22 07:13:37;;;;;;;5.80;3.37;;;23.80;99.90;;;;;;5053890;28;20277;-78
2021/06/22 07:16:04;;;;;;;6.75;3.15;;;23.90;99.90;;;;;;5049246;28;20780;-77
2021/06/22 07:18:31;;;;;;;8.63;3.63;;;24.00;99.90;;;;;;5049643;28;20211;-79
2021/06/22 07:20:59;;;;;;;8.07;4.23;;;24.00;99.90;;;;;;5051993;28;20704;-75
2021/06/22 07:23:26;;;;;;;7.85;4.00;;;24.10;99.90;;;;;;5006032;28;20303;-77
2021/06/22 07:25:53;;;;;;;4.82;3.22;;;24.10;99.90;;;;;;5019456;28;20773;-77
2021/06/22 07:28:21;;;;;;;6.50;3.63;;;24.10;99.90;;;;;;5044559;28;20208;-77
2021/06/22 07:30:47;;;;;;;5.68;3.70;;;24.20;99.90;;;;;;5044423;28;20207;-77
2021/06/22 07:33:15;;;;;;;7.18;3.72;;;24.20;99.90;;;;;;5023566;28;20672;-76
2021/06/22 07:35:43;;;;;;;6.25;3.60;;;24.20;99.90;;;;;;5043124;28;20214;-78
2021/06/22 07:38:10;;;;;;;5.93;3.80;;;24.30;99.90;;;;;;5043948;28;20219;-77
2021/06/22 07:40:37;;;;;;;7.28;3.70;;;24.30;99.90;;;;;;5045650;28;20510;-77
2021/06/22 07:43:05;;;;;;;4.82;3.80;;;24.50;99.90;;;;;;5025617;28;20332;-77
2021/06/22 07:45:31;;;;;;;9.88;3.60;;;24.60;99.90;;;;;;5041509;28;20290;-77
2021/06/22 07:47:58;;;;;;;10.30;3.90;;;24.70;99.90;;;;;;5042109;28;20608;-77
2021/06/22 07:50:25;;;;;;;6.68;3.60;;;24.60;99.90;;;;;;5034006;28;20250;-76
2021/06/22 07:52:52;;;;;;;9.65;3.92;;;24.60;99.90;;;;;;5040629;28;20219;-77
2021/06/22 07:55:18;;;;;;;9.93;4.30;;;24.70;99.90;;;;;;5029420;28;20187;-77
2021/06/22 07:57:48;;;;;;;7.88;3.83;;;24.60;99.90;;;;;;5044763;28;20180;-79
2021/06/22 08:02:57;;;;;;;7.40;4.05;;;24.80;99.90;;;;;;5041057;28;20608;-79
2021/06/22 08:05:24;;;;;;;9.18;4.10;;;24.80;99.90;;;;;;5043268;28;20263;-77
2021/06/22 08:07:50;;;;;;;7.13;3.72;;;24.90;99.90;;;;;;5041837;28;20198;-78
2021/06/22 08:10:17;;;;;;;8.15;3.95;;;24.90;99.90;;;;;;5026915;28;20196;-77
2021/06/22 08:12:43;;;;;;;8.15;3.80;;;24.90;99.90;;;;;;5025779;28;20219;-78
2021/06/22 08:15:10;;;;;;;7.53;4.22;;;24.90;99.90;;;;;;5041543;28;20183;-79
2021/06/22 08:17:36;;;;;;;9.90;4.20;;;25.00;99.90;;;;;;5044063;28;20187;-78
2021/06/22 08:20:06;;;;;;;8.57;3.88;;;25.10;99.90;;;;;;5043876;28;20183;-78
2021/06/22 08:22:32;;;;;;;6.07;3.47;;;25.20;99.90;;;;;;5026793;28;20195;-79
2021/06/22 08:24:59;;;;;;;9.90;4.20;;;25.20;99.90;;;;;;5024854;28;20648;-79
2021/06/22 08:27:25;;;;;;;10.05;4.18;;;25.30;99.90;;;;;;5043237;28;20730;-77
2021/06/22 08:29:51;;;;;;;7.60;3.65;;;25.20;99.90;;;;;;5042305;28;20183;-78
2021/06/22 08:32:18;;;;;;;11.93;4.15;;;25.20;99.90;;;;;;5043918;28;20246;-78
2021/06/22 08:34:44;;;;;;;4.97;3.60;;;25.10;99.90;;;;;;5044320;28;20214;-78
2021/06/22 08:37:10;;;;;;;6.65;4.20;;;25.10;99.90;;;;;;5058404;28;20222;-77
2021/06/22 08:39:37;;;;;;;7.90;4.00;;;25.20;99.90;;;;;;5026595;28;20207;-78
2021/06/22 08:42:06;;;;;;;12.15;3.97;;;25.30;99.90;;;;;;5041831;28;20237;-79
2021/06/22 08:44:38;;;;;;;6.95;4.15;;;25.30;99.90;;;;;;5043409;28;20222;-77
2021/06/22 08:47:05;;;;;;;11.38;3.75;;;25.40;99.90;;;;;;5043317;28;20183;-78
2021/06/22 08:49:34;;;;;;;12.43;3.75;;;25.40;99.90;;;;;;5031269;28;20828;-77
2021/06/22 08:52:02;;;;;;;11.60;3.88;;;25.40;99.90;;;;;;5029922;28;20246;-77
2021/06/22 08:54:29;;;;;;;10.38;3.78;;;25.30;99.90;;;;;;5040289;28;20187;-78
2021/06/22 08:56:58;;;;;;;9.90;3.70;;;25.30;99.90;;;;;;5017909;28;20246;-78
2021/06/22 08:59:24;;;;;;;6.32;3.60;;;25.50;99.90;;;;;;5035012;28;20256;-78
2021/06/22 09:01:53;;;;;;;9.23;3.78;;;25.50;99.90;;;;;;5029010;28;20718;-79
2021/06/22 09:04:20;;;;;;;8.45;3.85;;;25.50;99.90;;;;;;5014755;28;20706;-79
2021/06/22 09:06:47;;;;;;;8.98;3.50;;;25.40;99.90;;;;;;5023604;28;20218;-79
2021/06/22 09:09:13;;;;;;;6.90;3.70;;;25.50;99.90;;;;;;5040790;28;20309;-79
2021/06/22 09:11:40;;;;;;;6.25;3.72;;;25.40;99.90;;;;;;5041092;28;20211;-78
2021/06/22 09:14:09;;;;;;;8.80;4.18;;;25.10;99.90;;;;;;5035139;28;20281;-79
2021/06/22 09:16:38;;;;;;;7.47;3.83;;;25.30;99.90;;;;;;5045441;28;20219;-79
2021/06/22 09:19:11;;;;;;;12.20;3.92;;;25.30;99.90;;;;;;5033460;28;20216;-79
2021/06/22 09:21:42;;;;;;;6.32;3.58;;;25.20;99.90;;;;;;5036043;28;20294;-79
2021/06/22 09:24:21;;;;;;;8.18;4.03;;;25.20;99.90;;;;;;5039957;28;20762;-79
2021/06/22 09:26:50;;;;;;;4.57;3.63;;;25.50;99.90;;;;;;5022746;28;20206;-78
2021/06/22 09:29:22;;;;;;;8.75;4.15;;;25.10;99.90;;;;;;5015593;28;20216;-79
2021/06/22 09:31:55;;;;;;;7.40;4.03;;;25.10;99.90;;;;;;5007779;28;20230;-77
2021/06/22 09:34:24;;;;;;;7.25;3.90;;;25.00;99.90;;;;;;5005074;28;21116;-78
2021/06/22 09:37:02;;;;;;;6.82;3.92;;;25.10;99.90;;;;;;5027336;28;20214;-79
2021/06/22 09:39:30;;;;;;;8.50;3.60;;;25.40;99.90;;;;;;5052699;28;20608;-80
2021/06/22 09:41:58;;;;;;;9.98;4.10;;;25.30;99.90;;;;;;5019500;28;20265;-79
2021/06/22 09:44:29;;;;;;;9.82;4.00;;;25.10;99.90;;;;;;5057310;28;20211;-78
2021/06/22 09:47:00;;;;;;;4.97;3.30;;;25.30;99.90;;;;;;5021913;28;20203;-78
2021/06/22 09:49:31;;;;;;;7.53;3.60;;;25.50;99.90;;;;;;5038262;28;20245;-78
2021/06/22 09:52:09;;;;;;;6.82;3.83;;;25.70;99.90;;;;;;5039817;28;20216;-78
2021/06/22 09:54:47;;;;;;;7.80;3.90;;;25.50;99.90;;;;;;5023113;28;20633;-78
2021/06/22 09:57:17;;;;;;;8.80;3.80;;;25.50;99.90;;;;;;5034396;28;20204;-78
2021/06/22 10:00:10;;;;;;;7.88;3.80;;;25.80;99.90;;;;;;5024211;28;20248;-78
2021/06/22 10:02:51;;;;;;;9.70;3.65;;;26.10;99.90;;;;;;5019829;28;20211;-78
2021/06/22 10:05:19;;;;;;;4.38;3.35;;;26.20;99.90;;;;;;5022253;28;20847;-77
2021/06/22 10:07:45;;;;;;;6.30;3.80;;;26.30;99.90;;;;;;5038393;28;20222;-78
2021/06/22 10:10:13;;;;;;;8.60;3.72;;;26.30;99.90;;;;;;5022125;28;20231;-77
2021/06/22 10:12:44;;;;;;;8.32;3.90;;;26.20;99.90;;;;;;5001246;28;21740;-77
2021/06/22 10:15:14;;;;;;;7.53;3.92;;;26.00;99.90;;;;;;5037924;28;20200;-77
2021/06/22 10:17:41;;;;;;;6.72;3.67;;;25.90;99.90;;;;;;5038702;28;20192;-78
2021/06/22 10:20:10;;;;;;;6.70;3.88;;;26.10;99.90;;;;;;5038671;28;20212;-77
2021/06/22 10:22:39;;;;;;;9.52;3.80;;;26.30;99.90;;;;;;5055065;28;20802;-76
2021/06/22 10:25:10;;;;;;;6.38;3.63;;;26.30;99.90;;;;;;5045645;28;20210;-76
2021/06/22 10:27:36;;;;;;;9.10;3.75;;;26.40;99.90;;;;;;5031184;28;20208;-77
2021/06/22 10:30:07;;;;;;;9.35;3.67;;;26.60;99.90;;;;;;5031921;28;20926;-77
2021/06/22 10:32:35;;;;;;;5.53;3.60;;;26.60;99.90;;;;;;5044128;28;20223;-77
2021/06/22 10:35:14;;;;;;;5.05;3.45;;;26.60;99.90;;;;;;5028049;28;20192;-77
2021/06/22 10:37:56;;;;;;;7.85;3.75;;;26.50;99.90;;;;;;5045857;28;20180;-77
2021/06/22 10:40:30;;;;;;;7.68;3.45;;;26.40;99.90;;;;;;5060516;28;21161;-77
2021/06/22 10:43:07;;;;;;;7.90;3.47;;;26.50;99.90;;;;;;5055365;28;20198;-78
2021/06/22 10:45:59;;;;;;;7.40;3.80;;;26.50;99.90;;;;;;5043910;28;20209;-77
2021/06/22 10:48:25;;;;;;;5.30;3.40;;;26.60;99.90;;;;;;5044262;28;20641;-77
2021/06/22 10:50:54;;;;;;;7.25;3.40;;;26.50;99.90;;;;;;5053776;28;20193;-77
2021/06/22 10:53:42;;;;;;;5.15;3.47;;;26.40;99.90;;;;;;5062434;28;20250;-77
2021/06/22 10:56:17;;;;;;;5.35;3.10;;;26.30;99.90;;;;;;5050862;28;20825;-77
2021/06/22 10:59:13;;;;;;;6.82;3.53;;;26.50;99.90;;;;;;5028734;28;20559;-77
2021/06/22 11:02:03;;;;;;;4.97;3.40;;;26.70;99.90;;;;;;5031546;28;20207;-77
2021/06/22 11:04:30;;;;;;;5.90;3.80;;;26.70;99.90;;;;;;5022904;28;20211;-77
2021/06/22 11:07:02;;;;;;;7.38;3.90;;;26.90;99.90;;;;;;5025311;28;20659;-77
2021/06/22 11:09:28;;;;;;;6.10;3.13;;;27.00;99.90;;;;;;5057313;28;20290;-77
2021/06/22 11:12:20;;;;;;;5.00;3.53;;;27.00;99.90;;;;;;5039549;28;20255;-77
2021/06/22 11:15:07;;;;;;;7.47;3.42;;;26.90;99.90;;;;;;5041009;28;20191;-77
2021/06/22 11:17:43;;;;;;;6.15;3.50;;;26.90;99.90;;;;;;5049329;28;20191;-76
2021/06/22 11:20:15;;;;;;;9.70;3.72;;;26.90;99.90;;;;;;5046603;28;20254;-77
2021/06/22 11:23:11;;;;;;;6.40;3.83;;;26.90;99.90;;;;;;5046362;28;20191;-77
2021/06/22 11:26:03;;;;;;;5.72;3.22;;;26.90;99.90;;;;;;5057720;28;20226;-77
2021/06/22 11:29:06;;;;;;;6.53;3.50;;;27.00;99.90;;;;;;5024604;28;20180;-77
2021/06/22 11:31:44;;;;;;;6.60;3.20;;;26.90;99.90;;;;;;4999776;28;20693;-77
2021/06/22 11:34:16;;;;;;;7.55;3.58;;;27.30;99.90;;;;;;5007251;28;20191;-77
2021/06/22 11:36:57;;;;;;;8.02;4.00;;;27.20;99.90;;;;;;5052741;28;20266;-77
2021/06/22 11:39:28;;;;;;;5.15;3.92;;;27.30;99.90;;;;;;5046413;28;20183;-77
2021/06/22 11:44:56;;;;;;;7.32;4.10;;;27.10;99.90;;;;;;5042241;28;20187;-77
2021/06/22 11:47:28;;;;;;;7.72;3.80;;;27.30;99.90;;;;;;5041738;28;20188;-77
2021/06/22 11:50:20;;;;;;;10.10;3.90;;;27.10;99.90;;;;;;5002304;28;20486;-78
2021/06/22 11:52:56;;;;;;;4.72;3.75;;;27.10;99.90;;;;;;5037807;28;20758;-78
2021/06/22 11:55:23;;;;;;;6.43;3.83;;;27.30;99.90;;;;;;5022999;28;20206;-78
2021/06/22 11:57:57;;;;;;;6.85;4.22;;;27.10;99.90;;;;;;5026671;28;20210;-78
2021/06/22 12:00:33;;;;;;;6.65;4.00;;;27.10;99.90;;;;;;5046866;28;20537;-77
2021/06/22 12:03:07;;;;;;;8.20;3.90;;;27.30;99.90;;;;;;5040207;28;20222;-78
2021/06/22 12:05:36;;;;;;;10.20;4.60;;;27.00;99.90;;;;;;5043011;28;20222;-77
2021/06/22 12:08:07;;;;;;;7.50;4.68;;;27.10;99.90;;;;;;5045641;28;20289;-77
2021/06/22 12:10:42;;;;;;;6.47;4.10;;;27.40;99.90;;;;;;5049073;28;20223;-77
2021/06/22 12:13:11;;;;;;;9.95;5.13;;;27.50;99.90;;;;;;5060082;28;20285;-77
2021/06/22 12:15:44;;;;;;;10.13;4.88;;;26.90;99.90;;;;;;5034802;28;20178;-77
2021/06/22 12:18:11;;;;;;;7.28;5.50;;;27.20;99.90;;;;;;5063316;28;20183;-77
2021/06/22 12:20:41;;;;;;;9.38;4.93;;;27.00;99.90;;;;;;5025775;28;20211;-76
2021/06/22 12:23:18;;;;;;;8.05;4.65;;;27.30;99.90;;;;;;5034032;28;20278;-77
2021/06/22 12:25:53;;;;;;;8.82;4.90;;;26.70;99.90;;;;;;5043188;28;20207;-77
2021/06/22 12:28:24;;;;;;;8.05;5.43;;;27.00;99.90;;;;;;5020905;28;21697;-78
2021/06/22 12:30:57;;;;;;;9.73;4.43;;;26.80;99.90;;;;;;5048315;28;20571;-77
2021/06/22 12:33:30;;;;;;;7.75;5.40;;;27.20;99.90;;;;;;5041603;28;20285;-77
2021/06/22 12:36:07;;;;;;;7.85;6.00;;;27.00;99.90;;;;;;5047500;28;20287;-77
2021/06/22 12:38:34;;;;;;;7.60;6.00;;;26.50;99.90;;;;;;5041960;28;20201;-77
2021/06/22 12:41:05;;;;;;;7.30;5.30;;;26.70;99.90;;;;;;5046374;28;20175;-76
2021/06/22 12:43:43;;;;;;;7.05;5.10;;;26.50;99.90;;;;;;5047450;28;20676;-77
2021/06/22 12:46:11;;;;;;;6.70;5.78;;;26.50;99.90;;;;;;5046572;28;20187;-77
2021/06/22 12:48:39;;;;;;;8.50;5.38;;;26.50;99.90;;;;;;5028174;28;20187;-77
2021/06/22 12:51:06;;;;;;;7.45;6.05;;;26.50;99.90;;;;;;5028448;28;20218;-77
2021/06/22 12:53:33;;;;;;;8.75;6.30;;;26.50;99.90;;;;;;5009611;28;20210;-77
2021/06/22 12:56:16;;;;;;;7.50;6.25;;;26.20;99.90;;;;;;5025577;28;20745;-77
2021/06/22 12:58:55;;;;;;;7.22;5.90;;;26.10;99.90;;;;;;5050372;28;20202;-77
2021/06/22 13:01:43;;;;;;;7.03;5.78;;;26.00;99.90;;;;;;5044755;28;20274;-77
2021/06/22 13:04:13;;;;;;;8.93;6.45;;;25.80;99.90;;;;;;5028359;28;20619;-77
2021/06/22 13:06:46;;;;;;;8.52;5.25;;;26.20;99.90;;;;;;5029970;28;20191;-77